Time;durP1;ratioP1;P1;durP2;ratioP2;P2;SDS_P1;SDS_P2;PMS_P1;PMS_P2;Temp;Humidity;BMP_temperature;BMP_pressure;BME280_temperature;BME280_humidity;BME280_pressure;Samples;Min_cycle;Max_cycle;Signal;HPM_P1;HPM_P2
2022/05/29 00:01:36;;;;;;;62.70;3.60;;;;;;;;;;5076865;28;20506;-80
2022/05/29 00:04:03;;;;;;;60.87;3.73;;;;;;;;;;5076901;28;20440;-80
2022/05/29 00:06:32;;;;;;;60.83;3.90;;;;;;;;;;5077513;28;20486;-80
2022/05/29 00:08:59;;;;;;;59.80;4.10;;;;;;;;;;5076011;28;20673;-80
2022/05/29 00:11:27;;;;;;;59.17;3.53;;;;;;;;;;5076376;28;20847;-80
2022/05/29 00:14:00;;;;;;;59.90;4.10;;;;;;;;;;5076096;28;20440;-80
2022/05/29 00:16:27;;;;;;;59.80;3.90;;;;;;;;;;5077161;28;20435;-80
2022/05/29 00:18:55;;;;;;;59.27;3.57;;;;;;;;;;5076265;28;20526;-80
2022/05/29 00:21:22;;;;;;;60.17;4.17;;;;;;;;;;5077309;28;20427;-79
2022/05/29 00:23:50;;;;;;;59.40;3.57;;;;;;;;;;5077790;28;20443;-79
2022/05/29 00:26:18;;;;;;;60.03;3.83;;;;;;;;;;5077456;28;20434;-80
2022/05/29 00:28:45;;;;;;;60.07;4.10;;;;;;;;;;5077817;28;20502;-79
2022/05/29 00:31:14;;;;;;;62.00;4.20;;;;;;;;;;5078419;28;20815;-79
2022/05/29 00:33:42;;;;;;;59.77;3.90;;;;;;;;;;5077896;28;20428;-79
2022/05/29 00:36:10;;;;;;;59.57;4.30;;;;;;;;;;5077787;28;20478;-80
2022/05/29 00:38:39;;;;;;;59.83;4.40;;;;;;;;;;5077094;28;20451;-80
2022/05/29 00:41:11;;;;;;;59.20;3.60;;;;;;;;;;5077309;28;20431;-79
2022/05/29 00:43:38;;;;;;;62.10;4.00;;;;;;;;;;5078256;28;20443;-79
2022/05/29 00:46:06;;;;;;;59.37;3.83;;;;;;;;;;5077919;28;20439;-79
2022/05/29 00:48:34;;;;;;;59.70;3.90;;;;;;;;;;5077293;28;20444;-79
2022/05/29 00:51:03;;;;;;;60.10;4.67;;;;;;;;;;5077478;28;20517;-79
2022/05/29 00:53:32;;;;;;;60.47;4.03;;;;;;;;;;5073945;28;20440;-79
2022/05/29 00:56:02;;;;;;;60.70;3.87;;;;;;;;;;5071812;28;20493;-80
2022/05/29 00:58:30;;;;;;;61.40;4.77;;;;;;;;;;5071785;28;20436;-79
2022/05/29 01:00:58;;;;;;;60.63;4.37;;;;;;;;;;5072246;28;20545;-79
2022/05/29 01:03:26;;;;;;;59.67;3.90;;;;;;;;;;5072542;28;20443;-79
2022/05/29 01:05:54;;;;;;;59.90;4.53;;;;;;;;;;5072802;28;20525;-79
2022/05/29 01:08:24;;;;;;;60.37;4.30;;;;;;;;;;5072735;28;20431;-79
2022/05/29 01:11:09;;;;;;;59.67;4.13;;;;;;;;;;5073276;28;20506;-80
2022/05/29 01:13:42;;;;;;;60.27;4.20;;;;;;;;;;5073288;28;20435;-79
2022/05/29 01:16:17;;;;;;;59.87;4.20;;;;;;;;;;5073213;28;20471;-79
2022/05/29 01:18:49;;;;;;;60.33;4.77;;;;;;;;;;5073015;28;20923;-80
2022/05/29 01:21:28;;;;;;;60.27;3.87;;;;;;;;;;5073297;28;20439;-79
2022/05/29 01:24:16;;;;;;;60.60;4.37;;;;;;;;;;5073371;28;20842;-79
2022/05/29 01:26:57;;;;;;;59.70;3.73;;;;;;;;;;5073543;28;20439;-79
2022/05/29 01:29:33;;;;;;;60.17;3.83;;;;;;;;;;5072948;28;20493;-80
2022/05/29 01:32:04;;;;;;;61.80;5.23;;;;;;;;;;5077740;28;20525;-79
2022/05/29 01:34:35;;;;;;;59.27;4.23;;;;;;;;;;5078119;28;20494;-79
2022/05/29 01:37:13;;;;;;;61.40;4.00;;;;;;;;;;5077544;28;20455;-80
2022/05/29 01:39:44;;;;;;;60.57;4.23;;;;;;;;;;5078123;28;20463;-79
2022/05/29 01:42:16;;;;;;;60.70;3.87;;;;;;;;;;5078336;28;20443;-79
2022/05/29 01:44:47;;;;;;;62.07;4.03;;;;;;;;;;5077337;28;20478;-79
2022/05/29 01:47:18;;;;;;;60.30;4.07;;;;;;;;;;5078105;28;20432;-79
2022/05/29 01:49:49;;;;;;;60.20;4.30;;;;;;;;;;5078634;28;20825;-80
2022/05/29 01:52:18;;;;;;;60.20;4.83;;;;;;;;;;5080864;28;20514;-80
2022/05/29 01:54:47;;;;;;;60.03;4.17;;;;;;;;;;5079424;28;20475;-79
2022/05/29 01:57:17;;;;;;;59.70;4.10;;;;;;;;;;5082323;28;20497;-80
2022/05/29 01:59:49;;;;;;;59.50;3.93;;;;;;;;;;5080387;28;20463;-79
2022/05/29 02:02:19;;;;;;;59.73;3.80;;;;;;;;;;5079986;28;20419;-79
2022/05/29 02:04:48;;;;;;;59.70;3.90;;;;;;;;;;5081167;28;20451;-79
2022/05/29 02:10:02;;;;;;;59.50;4.00;;;;;;;;;;5081275;28;20457;-79
2022/05/29 02:12:31;;;;;;;61.07;4.20;;;;;;;;;;5081538;28;20554;-79
2022/05/29 02:15:03;;;;;;;59.57;3.80;;;;;;;;;;5081281;28;20982;-79
2022/05/29 02:17:34;;;;;;;58.97;3.83;;;;;;;;;;5081329;28;20505;-79
2022/05/29 02:20:04;;;;;;;59.47;3.63;;;;;;;;;;5081714;28;20451;-79
2022/05/29 02:22:31;;;;;;;59.07;3.50;;;;;;;;;;5081260;28;20944;-79
2022/05/29 02:25:01;;;;;;;59.10;3.20;;;;;;;;;;5081325;28;20506;-79
2022/05/29 02:27:31;;;;;;;59.70;3.63;;;;;;;;;;5080942;28;20446;-79
2022/05/29 02:29:59;;;;;;;62.10;3.93;;;;;;;;;;5081465;28;20466;-79
2022/05/29 02:32:31;;;;;;;59.17;3.40;;;;;;;;;;5080807;28;20911;-79
2022/05/29 02:35:03;;;;;;;59.60;3.60;;;;;;;;;;5081104;28;20471;-79
2022/05/29 02:37:33;;;;;;;59.60;3.40;;;;;;;;;;5080820;28;20866;-79
2022/05/29 02:40:08;;;;;;;60.17;3.70;;;;;;;;;;5081111;28;20479;-79
2022/05/29 02:42:42;;;;;;;61.90;3.63;;;;;;;;;;5079650;28;20419;-79
2022/05/29 02:45:13;;;;;;;60.20;3.70;;;;;;;;;;5081087;28;20447;-79
2022/05/29 02:47:47;;;;;;;60.40;3.63;;;;;;;;;;5079117;28;20439;-79
2022/05/29 02:50:20;;;;;;;59.60;3.80;;;;;;;;;;5080384;28;20451;-79
2022/05/29 02:52:51;;;;;;;59.00;3.50;;;;;;;;;;5080954;28;20597;-79
2022/05/29 02:55:19;;;;;;;59.50;3.63;;;;;;;;;;5080652;28;20483;-79
2022/05/29 02:57:46;;;;;;;59.70;3.90;;;;;;;;;;5080000;28;20443;-79
2022/05/29 03:00:15;;;;;;;59.10;3.67;;;;;;;;;;5080233;28;20518;-80
2022/05/29 03:02:51;;;;;;;59.83;3.73;;;;;;;;;;5080106;28;20471;-79
2022/05/29 03:05:23;;;;;;;58.87;3.17;;;;;;;;;;5079786;28;20423;-79
2022/05/29 03:07:55;;;;;;;60.07;4.17;;;;;;;;;;5077549;28;20438;-78
2022/05/29 03:10:25;;;;;;;61.27;4.03;;;;;;;;;;5076434;28;20455;-78
2022/05/29 03:12:56;;;;;;;60.63;3.97;;;;;;;;;;5076626;28;20435;-78
2022/05/29 03:15:32;;;;;;;59.23;3.60;;;;;;;;;;5080004;28;20467;-79
2022/05/29 03:18:07;;;;;;;64.47;4.60;;;;;;;;;;5079449;28;20428;-79
2022/05/29 03:20:45;;;;;;;64.27;4.23;;;;;;;;;;5077098;28;20498;-78
2022/05/29 03:23:19;;;;;;;59.40;3.20;;;;;;;;;;5079765;28;20435;-79
2022/05/29 03:25:49;;;;;;;58.87;3.10;;;;;;;;;;5081294;28;20431;-79
2022/05/29 03:28:19;;;;;;;60.00;3.50;;;;;;;;;;5078527;28;20435;-79
2022/05/29 03:30:48;;;;;;;60.00;3.63;;;;;;;;;;5079580;28;20451;-79
2022/05/29 03:33:17;;;;;;;59.50;3.30;;;;;;;;;;5079921;28;20497;-79
2022/05/29 03:35:47;;;;;;;58.97;3.20;;;;;;;;;;5078660;28;20517;-79
2022/05/29 03:38:14;;;;;;;59.40;3.77;;;;;;;;;;5079345;28;20490;-79
2022/05/29 03:40:42;;;;;;;59.40;3.40;;;;;;;;;;5079377;28;20474;-79
2022/05/29 03:43:09;;;;;;;61.10;3.93;;;;;;;;;;5079688;28;20915;-79
2022/05/29 03:45:36;;;;;;;59.40;3.30;;;;;;;;;;5079679;28;20435;-79
2022/05/29 03:48:04;;;;;;;59.17;3.23;;;;;;;;;;5079187;28;20431;-79
2022/05/29 03:50:34;;;;;;;60.43;4.07;;;;;;;;;;5079216;28;20455;-79
2022/05/29 03:53:01;;;;;;;59.53;3.70;;;;;;;;;;5078223;28;20498;-79
2022/05/29 03:55:29;;;;;;;61.00;3.40;;;;;;;;;;5078976;28;20474;-79
2022/05/29 03:57:56;;;;;;;61.60;3.40;;;;;;;;;;5079038;28;20463;-79
2022/05/29 04:00:24;;;;;;;59.43;3.80;;;;;;;;;;5079336;28;20462;-79
2022/05/29 04:02:52;;;;;;;60.87;4.07;;;;;;;;;;5079208;28;20501;-79
2022/05/29 04:05:21;;;;;;;59.13;3.40;;;;;;;;;;5078474;28;20792;-79
2022/05/29 04:13:21;;;;;;;59.70;3.17;;;;;;;;;;5077574;28;20411;-78
2022/05/29 04:15:49;;;;;;;59.30;3.33;;;;;;;;;;5077982;28;20479;-79
2022/05/29 04:18:17;;;;;;;59.53;3.23;;;;;;;;;;5078412;28;20483;-79
2022/05/29 04:20:45;;;;;;;58.90;2.93;;;;;;;;;;5078794;28;20521;-79
2022/05/29 04:23:14;;;;;;;59.70;3.40;;;;;;;;;;5079001;28;21001;-79
2022/05/29 04:25:43;;;;;;;59.20;3.10;;;;;;;;;;5078778;28;20502;-79
2022/05/29 04:28:11;;;;;;;59.40;3.20;;;;;;;;;;5079082;28;20936;-79
2022/05/29 04:30:38;;;;;;;60.87;3.43;;;;;;;;;;5080764;28;20482;-79
2022/05/29 04:33:05;;;;;;;59.30;3.17;;;;;;;;;;5083791;28;20454;-79
2022/05/29 04:35:36;;;;;;;58.90;3.17;;;;;;;;;;5083018;28;20479;-79
2022/05/29 04:38:04;;;;;;;60.77;3.93;;;;;;;;;;5082427;28;20863;-79
2022/05/29 04:40:32;;;;;;;59.33;4.10;;;;;;;;;;5076887;28;20459;-79
2022/05/29 04:43:01;;;;;;;62.77;4.50;;;;;;;;;;5058173;28;20451;-79
2022/05/29 04:45:28;;;;;;;59.17;3.50;;;;;;;;;;5075719;28;20439;-79
2022/05/29 04:47:56;;;;;;;58.70;3.17;;;;;;;;;;5075021;28;20442;-79
2022/05/29 04:50:24;;;;;;;59.77;3.60;;;;;;;;;;5075664;28;20463;-79
2022/05/29 04:52:51;;;;;;;59.40;3.43;;;;;;;;;;5075026;28;20442;-79
2022/05/29 04:55:18;;;;;;;59.17;3.30;;;;;;;;;;5075156;28;20446;-79
2022/05/29 04:57:47;;;;;;;60.30;3.70;;;;;;;;;;5075136;28;20455;-81
2022/05/29 05:00:15;;;;;;;59.00;3.27;;;;;;;;;;5066872;28;20466;-80
2022/05/29 05:02:42;;;;;;;60.73;4.07;;;;;;;;;;5073950;28;20443;-80
2022/05/29 05:05:10;;;;;;;60.77;3.90;;;;;;;;;;5072818;28;20444;-81
2022/05/29 05:07:37;;;;;;;59.70;4.00;;;;;;;;;;5073749;28;20509;-81
2022/05/29 05:10:05;;;;;;;59.70;3.80;;;;;;;;;;5074185;28;20521;-81
2022/05/29 05:12:33;;;;;;;59.30;3.77;;;;;;;;;;5074036;28;20531;-81
2022/05/29 05:15:01;;;;;;;59.70;3.83;;;;;;;;;;5074098;28;20511;-81
2022/05/29 05:17:29;;;;;;;59.80;3.73;;;;;;;;;;5074262;28;20542;-80
2022/05/29 05:19:56;;;;;;;65.00;3.73;;;;;;;;;;5074102;28;20506;-80
2022/05/29 05:22:23;;;;;;;59.13;3.50;;;;;;;;;;5074097;28;20497;-80
2022/05/29 05:24:51;;;;;;;61.00;3.87;;;;;;;;;;5074361;28;20435;-80
2022/05/29 05:27:18;;;;;;;59.80;3.80;;;;;;;;;;5074229;28;20435;-79
2022/05/29 05:29:45;;;;;;;59.67;4.03;;;;;;;;;;5074305;28;20466;-79
2022/05/29 05:32:14;;;;;;;59.87;3.63;;;;;;;;;;5074963;28;20436;-80
2022/05/29 05:34:41;;;;;;;59.60;3.70;;;;;;;;;;5074499;28;20470;-79
2022/05/29 05:37:09;;;;;;;59.33;3.80;;;;;;;;;;5074146;28;20510;-79
2022/05/29 05:39:36;;;;;;;59.30;3.97;;;;;;;;;;5075217;28;20509;-79
2022/05/29 05:42:03;;;;;;;59.60;4.10;;;;;;;;;;5074885;28;20994;-79
2022/05/29 05:44:31;;;;;;;68.10;8.23;;;;;;;;;;5075141;28;20451;-80
2022/05/29 05:46:58;;;;;;;71.80;11.53;;;;;;;;;;5075606;28;20435;-80
2022/05/29 05:49:27;;;;;;;66.13;7.03;;;;;;;;;;5075209;28;20455;-80
2022/05/29 05:51:55;;;;;;;65.90;6.73;;;;;;;;;;5075100;28;20428;-80
2022/05/29 05:54:22;;;;;;;60.43;4.40;;;;;;;;;;5074950;28;20447;-79
2022/05/29 05:56:51;;;;;;;61.10;4.73;;;;;;;;;;5076454;28;20479;-79
2022/05/29 05:59:18;;;;;;;64.60;4.43;;;;;;;;;;5075857;28;20490;-80
2022/05/29 06:01:46;;;;;;;61.67;4.10;;;;;;;;;;5071387;28;20451;-79
2022/05/29 06:04:13;;;;;;;59.40;3.53;;;;;;;;;;5071223;28;20431;-79
2022/05/29 06:06:42;;;;;;;66.90;3.60;;;;;;;;;;5071528;28;20861;-79
2022/05/29 06:09:09;;;;;;;62.70;4.07;;;;;;;;;;5071237;28;20451;-79
2022/05/29 06:11:39;;;;;;;59.17;3.67;;;;;;;;;;5071666;28;20443;-79
2022/05/29 06:14:07;;;;;;;60.10;3.77;;;;;;;;;;5072131;28;20431;-79
2022/05/29 06:16:35;;;;;;;59.50;3.93;;;;;;;;;;5073101;28;21081;-79
2022/05/29 06:19:02;;;;;;;59.00;3.33;;;;;;;;;;5075167;28;20992;-79
2022/05/29 06:21:30;;;;;;;59.83;3.10;;;;;;;;;;5075875;28;20439;-79
2022/05/29 06:23:58;;;;;;;60.10;3.50;;;;;;;;;;5075637;28;20488;-80
2022/05/29 06:26:26;;;;;;;59.27;3.40;;;;;;;;;;5076094;28;20494;-79
2022/05/29 06:28:53;;;;;;;58.77;3.17;;;;;;;;;;5076028;28;20436;-80
2022/05/29 06:31:20;;;;;;;59.87;3.40;;;;;;;;;;5076251;28;20513;-79
2022/05/29 06:33:48;;;;;;;59.93;3.30;;;;;;;;;;5076916;28;20944;-79
2022/05/29 06:36:16;;;;;;;58.87;2.87;;;;;;;;;;5079436;28;20994;-78
2022/05/29 06:38:45;;;;;;;63.93;3.40;;;;;;;;;;5082619;28;20808;-79
2022/05/29 06:41:14;;;;;;;58.77;3.37;;;;;;;;;;5072949;28;20806;-78
2022/05/29 06:43:41;;;;;;;58.77;3.03;;;;;;;;;;5081489;28;20501;-79
2022/05/29 06:46:09;;;;;;;58.80;3.10;;;;;;;;;;5080907;28;20438;-79
2022/05/29 06:48:38;;;;;;;59.10;3.27;;;;;;;;;;5080143;28;20456;-79
2022/05/29 06:51:06;;;;;;;59.40;3.23;;;;;;;;;;5079871;28;20470;-79
2022/05/29 06:53:33;;;;;;;62.27;3.60;;;;;;;;;;5080785;28;20440;-79
2022/05/29 06:56:00;;;;;;;61.27;3.33;;;;;;;;;;5080375;28;20486;-79
2022/05/29 06:58:29;;;;;;;59.30;3.37;;;;;;;;;;5080552;28;20522;-79
2022/05/29 07:09:11;;;;;;;67.03;3.90;;;;;;;;;;5077745;28;20555;-79
2022/05/29 07:11:41;;;;;;;59.80;3.40;;;;;;;;;;5076759;28;20435;-79
2022/05/29 07:14:10;;;;;;;58.50;2.77;;;;;;;;;;5081082;28;20435;-80
2022/05/29 07:16:38;;;;;;;58.80;2.90;;;;;;;;;;5080190;28;20470;-80
2022/05/29 07:19:06;;;;;;;59.07;3.00;;;;;;;;;;5079278;28;20547;-80
2022/05/29 07:21:38;;;;;;;58.37;2.90;;;;;;;;;;5079197;28;20502;-81
2022/05/29 07:24:05;;;;;;;59.80;3.63;;;;;;;;;;5080033;28;20480;-80
2022/05/29 07:26:33;;;;;;;59.20;3.07;;;;;;;;;;5079334;28;20447;-80
2022/05/29 07:29:00;;;;;;;60.50;3.60;;;;;;;;;;5078575;28;20447;-81
2022/05/29 07:31:29;;;;;;;59.97;2.70;;;;;;;;;;5080169;28;20491;-80
2022/05/29 07:33:57;;;;;;;58.80;3.10;;;;;;;;;;5079820;28;20451;-79
2022/05/29 07:36:26;;;;;;;59.40;2.97;;;;;;;;;;5080124;28;20490;-80
2022/05/29 07:38:53;;;;;;;58.93;2.93;;;;;;;;;;5078974;28;20448;-80
2022/05/29 07:44:06;;;;;;;58.43;2.60;;;;;;;;;;5079987;28;20428;-80
2022/05/29 07:46:34;;;;;;;58.67;3.00;;;;;;;;;;5079339;28;20509;-80
2022/05/29 07:49:02;;;;;;;58.57;2.70;;;;;;;;;;5078974;28;20534;-80
2022/05/29 07:51:29;;;;;;;59.10;3.40;;;;;;;;;;5079500;28;20506;-80
2022/05/29 07:53:58;;;;;;;58.87;2.90;;;;;;;;;;5078993;28;20531;-80
2022/05/29 07:56:25;;;;;;;58.97;3.00;;;;;;;;;;5079605;28;20527;-81
2022/05/29 07:58:53;;;;;;;60.33;3.67;;;;;;;;;;5069738;28;20464;-80
2022/05/29 08:01:20;;;;;;;63.13;3.10;;;;;;;;;;5078931;28;20492;-80
2022/05/29 08:03:49;;;;;;;59.70;3.00;;;;;;;;;;5078969;28;20457;-79
2022/05/29 08:06:16;;;;;;;58.70;2.90;;;;;;;;;;5079393;28;20545;-79
2022/05/29 08:08:44;;;;;;;58.80;3.17;;;;;;;;;;5078602;28;20451;-80
2022/05/29 08:11:11;;;;;;;58.77;3.00;;;;;;;;;;5079580;28;20825;-80
2022/05/29 08:13:39;;;;;;;59.53;3.10;;;;;;;;;;5078992;28;20442;-80
2022/05/29 08:16:07;;;;;;;59.70;3.10;;;;;;;;;;5078827;28;20446;-79
2022/05/29 08:18:34;;;;;;;59.50;3.40;;;;;;;;;;5078372;28;20478;-80
2022/05/29 08:21:03;;;;;;;58.17;2.70;;;;;;;;;;5077927;28;20873;-79
2022/05/29 08:23:30;;;;;;;59.60;3.00;;;;;;;;;;5076107;28;20449;-79
2022/05/29 08:31:23;;;;;;;61.07;2.90;;;;;;;;;;5074812;28;20465;-79
2022/05/29 08:33:51;;;;;;;58.80;3.40;;;;;;;;;;5078414;28;20457;-80
2022/05/29 08:36:24;;;;;;;58.90;3.17;;;;;;;;;;5076501;28;20437;-80
2022/05/29 08:38:52;;;;;;;60.07;3.53;;;;;;;;;;5075702;28;20437;-79
2022/05/29 08:41:21;;;;;;;60.30;4.13;;;;;;;;;;5076733;28;20549;-80
2022/05/29 08:43:54;;;;;;;58.67;3.03;;;;;;;;;;5076288;28;20445;-81
2022/05/29 08:46:24;;;;;;;59.27;3.50;;;;;;;;;;5075874;28;20430;-79
2022/05/29 08:48:53;;;;;;;58.77;3.07;;;;;;;;;;5075523;28;20438;-79
2022/05/29 08:51:30;;;;;;;59.10;3.03;;;;;;;;;;5075216;28;20439;-78
2022/05/29 08:54:02;;;;;;;58.70;3.00;;;;;;;;;;5075025;28;20476;-79
2022/05/29 08:56:31;;;;;;;59.60;2.83;;;;;;;;;;5075025;28;20431;-79
2022/05/29 08:59:05;;;;;;;60.37;3.73;;;;;;;;;;5075180;28;20984;-79
2022/05/29 09:01:39;;;;;;;58.80;3.17;;;;;;;;;;5075478;28;20564;-79
2022/05/29 09:04:07;;;;;;;59.27;3.23;;;;;;;;;;5075395;28;20461;-79
2022/05/29 09:06:38;;;;;;;61.57;3.47;;;;;;;;;;5076520;28;20929;-79
2022/05/29 09:09:08;;;;;;;59.70;3.10;;;;;;;;;;5076139;28;20461;-79
2022/05/29 09:11:38;;;;;;;59.30;3.30;;;;;;;;;;5076329;28;20516;-80
2022/05/29 09:14:10;;;;;;;60.47;3.53;;;;;;;;;;5075190;28;20938;-79
2022/05/29 09:16:41;;;;;;;64.00;3.40;;;;;;;;;;5075244;28;20427;-78
2022/05/29 09:19:10;;;;;;;61.83;3.33;;;;;;;;;;5074619;28;20508;-79
2022/05/29 09:21:45;;;;;;;59.30;3.00;;;;;;;;;;5075058;28;20434;-78
2022/05/29 09:24:14;;;;;;;59.37;3.07;;;;;;;;;;5074516;28;20441;-79
2022/05/29 09:26:42;;;;;;;59.47;3.07;;;;;;;;;;5074194;28;20474;-79
2022/05/29 09:29:11;;;;;;;58.97;3.00;;;;;;;;;;5075460;28;21056;-79
2022/05/29 09:31:40;;;;;;;59.13;3.13;;;;;;;;;;5077484;28;20532;-80
2022/05/29 09:34:07;;;;;;;62.40;3.40;;;;;;;;;;5076871;28;20887;-79
2022/05/29 09:36:39;;;;;;;58.80;3.23;;;;;;;;;;5076949;28;20466;-80
2022/05/29 09:39:11;;;;;;;58.90;2.93;;;;;;;;;;5076834;28;20477;-80
2022/05/29 09:41:41;;;;;;;58.60;3.00;;;;;;;;;;5078398;28;20862;-81
2022/05/29 09:44:10;;;;;;;60.97;2.93;;;;;;;;;;5080031;28;20508;-79
2022/05/29 09:46:39;;;;;;;62.00;3.53;;;;;;;;;;5079158;28;20430;-80
2022/05/29 09:51:55;;;;;;;58.50;2.97;;;;;;;;;;5081021;28;20476;-79
2022/05/29 09:54:29;;;;;;;62.80;3.50;;;;;;;;;;5079942;28;20862;-80
2022/05/29 09:57:06;;;;;;;58.90;3.27;;;;;;;;;;5078786;28;20451;-79
2022/05/29 09:59:36;;;;;;;58.90;2.90;;;;;;;;;;5078584;28;20454;-79
2022/05/29 10:02:04;;;;;;;60.30;2.83;;;;;;;;;;5077811;28;20468;-80
2022/05/29 10:04:34;;;;;;;58.50;2.60;;;;;;;;;;5077647;28;20447;-81
2022/05/29 10:07:01;;;;;;;59.30;2.63;;;;;;;;;;5079258;28;20532;-79
2022/05/29 10:09:31;;;;;;;58.27;2.63;;;;;;;;;;5079288;28;20475;-79
2022/05/29 10:12:00;;;;;;;59.47;3.17;;;;;;;;;;5078984;28;20444;-80
2022/05/29 10:14:35;;;;;;;59.07;2.80;;;;;;;;;;5079718;28;20436;-80
2022/05/29 10:17:03;;;;;;;59.10;2.93;;;;;;;;;;5077561;28;20423;-79
2022/05/29 10:19:35;;;;;;;59.20;3.10;;;;;;;;;;5078985;28;20455;-78
2022/05/29 10:22:03;;;;;;;59.00;3.30;;;;;;;;;;5078550;28;20880;-78
2022/05/29 10:24:37;;;;;;;62.17;3.93;;;;;;;;;;5079164;28;20446;-78
2022/05/29 10:27:07;;;;;;;59.57;3.60;;;;;;;;;;5080588;28;20478;-79
2022/05/29 10:29:36;;;;;;;59.87;3.60;;;;;;;;;;5079543;28;20555;-79
2022/05/29 10:32:04;;;;;;;59.03;3.10;;;;;;;;;;5079877;28;20458;-80
2022/05/29 10:34:33;;;;;;;68.50;3.60;;;;;;;;;;5078805;28;20450;-80
2022/05/29 10:37:01;;;;;;;59.10;3.40;;;;;;;;;;5078375;28;20494;-80
2022/05/29 10:39:31;;;;;;;62.07;3.53;;;;;;;;;;5077598;28;20589;-80
2022/05/29 10:42:00;;;;;;;61.53;3.83;;;;;;;;;;5078271;28;20436;-79
2022/05/29 10:44:38;;;;;;;60.70;3.57;;;;;;;;;;5078631;28;20939;-79
2022/05/29 10:47:08;;;;;;;60.33;3.40;;;;;;;;;;5079192;28;20450;-79
2022/05/29 10:49:37;;;;;;;60.67;3.57;;;;;;;;;;5078803;28;20460;-80
2022/05/29 10:52:19;;;;;;;61.30;3.37;;;;;;;;;;5079100;28;20431;-79
2022/05/29 10:55:01;;;;;;;59.30;3.47;;;;;;;;;;5078662;28;20448;-79
2022/05/29 10:57:43;;;;;;;61.63;3.40;;;;;;;;;;5079193;28;21031;-79
2022/05/29 11:00:14;;;;;;;63.10;3.50;;;;;;;;;;5077336;28;20478;-79
2022/05/29 11:06:00;;;;;;;59.27;3.47;;;;;;;;;;5048846;28;20807;-80
2022/05/29 11:08:32;;;;;;;59.17;3.40;;;;;;;;;;5074447;28;20497;-80
2022/05/29 11:11:11;;;;;;;61.23;3.43;;;;;;;;;;5079800;28;20461;-79
2022/05/29 11:13:53;;;;;;;63.00;3.90;;;;;;;;;;5080407;28;20826;-79
2022/05/29 11:16:26;;;;;;;59.47;3.73;;;;;;;;;;5078286;28;20532;-79
2022/05/29 11:19:00;;;;;;;60.17;3.93;;;;;;;;;;5079836;28;20478;-79
2022/05/29 11:21:31;;;;;;;67.93;4.00;;;;;;;;;;5080510;28;20447;-79
2022/05/29 11:24:14;;;;;;;60.37;3.93;;;;;;;;;;5080080;28;20498;-79
2022/05/29 11:26:47;;;;;;;59.07;3.63;;;;;;;;;;5079899;28;20865;-79
2022/05/29 11:29:33;;;;;;;59.27;3.80;;;;;;;;;;5077063;28;20817;-79
2022/05/29 11:32:06;;;;;;;60.00;3.80;;;;;;;;;;5079840;28;20530;-80
2022/05/29 11:34:36;;;;;;;59.70;3.60;;;;;;;;;;5079861;28;20482;-80
2022/05/29 11:37:22;;;;;;;60.43;3.50;;;;;;;;;;5079142;28;20443;-80
2022/05/29 11:39:50;;;;;;;59.50;3.50;;;;;;;;;;5078518;28;20490;-80
2022/05/29 11:42:19;;;;;;;59.87;3.80;;;;;;;;;;5078491;28;20435;-80
2022/05/29 11:44:54;;;;;;;59.57;3.70;;;;;;;;;;5077996;28;20432;-80
2022/05/29 11:53:14;;;;;;;59.87;3.87;;;;;;;;;;5076460;28;20423;-80
2022/05/29 11:55:42;;;;;;;59.80;3.70;;;;;;;;;;5077971;28;20459;-80
2022/05/29 11:58:12;;;;;;;60.10;3.70;;;;;;;;;;5077332;28;20545;-80
2022/05/29 12:00:42;;;;;;;59.50;3.40;;;;;;;;;;5077422;28;20515;-80
2022/05/29 12:03:16;;;;;;;59.57;3.83;;;;;;;;;;5077021;28;20510;-80
2022/05/29 12:05:45;;;;;;;60.70;4.27;;;;;;;;;;5076483;28;20459;-79
2022/05/29 12:08:15;;;;;;;59.70;4.20;;;;;;;;;;5075857;28;20483;-79
2022/05/29 12:10:51;;;;;;;58.83;3.30;;;;;;;;;;5075541;28;20471;-79
2022/05/29 12:13:19;;;;;;;62.37;4.10;;;;;;;;;;5076210;28;20459;-79
2022/05/29 12:15:48;;;;;;;59.20;3.40;;;;;;;;;;5075081;28;20431;-80
2022/05/29 12:18:18;;;;;;;59.40;3.63;;;;;;;;;;5075032;28;20491;-78
2022/05/29 12:20:49;;;;;;;58.77;3.53;;;;;;;;;;5075219;28;20468;-78
2022/05/29 12:23:25;;;;;;;59.93;3.40;;;;;;;;;;5075571;28;20441;-79
2022/05/29 12:25:57;;;;;;;58.80;3.23;;;;;;;;;;5075291;28;20884;-78
2022/05/29 12:28:29;;;;;;;60.73;3.50;;;;;;;;;;5075707;28;20538;-79
2022/05/29 12:30:56;;;;;;;58.83;2.97;;;;;;;;;;5075915;28;20458;-80
2022/05/29 12:33:27;;;;;;;58.73;3.00;;;;;;;;;;5076399;28;20948;-79
2022/05/29 12:35:58;;;;;;;60.50;3.43;;;;;;;;;;5077028;28;20438;-80
2022/05/29 12:38:35;;;;;;;59.37;3.40;;;;;;;;;;5076491;28;20486;-81
2022/05/29 12:41:17;;;;;;;58.67;2.90;;;;;;;;;;5076826;28;20458;-81
2022/05/29 12:43:56;;;;;;;59.00;3.20;;;;;;;;;;5077463;28;20458;-82
2022/05/29 12:46:32;;;;;;;58.50;2.70;;;;;;;;;;5078213;28;20453;-81
2022/05/29 12:49:11;;;;;;;58.73;2.57;;;;;;;;;;5078465;28;20439;-80
2022/05/29 12:51:57;;;;;;;58.47;2.90;;;;;;;;;;5078741;28;20531;-81
2022/05/29 12:54:39;;;;;;;60.00;2.60;;;;;;;;;;5078410;28;20461;-78
2022/05/29 12:57:22;;;;;;;60.63;2.90;;;;;;;;;;5075440;28;20428;-79
2022/05/29 12:59:58;;;;;;;58.70;2.60;;;;;;;;;;5076442;28;20487;-78
2022/05/29 13:02:36;;;;;;;58.17;2.50;;;;;;;;;;5074880;28;20451;-79
2022/05/29 13:05:22;;;;;;;59.90;3.00;;;;;;;;;;5075747;28;20442;-78
2022/05/29 13:07:58;;;;;;;58.60;2.70;;;;;;;;;;5074184;28;20435;-78
2022/05/29 13:10:28;;;;;;;58.10;2.53;;;;;;;;;;5075063;28;20448;-78
2022/05/29 13:13:03;;;;;;;58.60;2.40;;;;;;;;;;5075964;28;20526;-79
2022/05/29 13:15:31;;;;;;;58.63;2.90;;;;;;;;;;5075224;28;20513;-78
2022/05/29 13:18:13;;;;;;;58.77;2.50;;;;;;;;;;5077572;28;20852;-79
2022/05/29 13:20:59;;;;;;;58.30;2.40;;;;;;;;;;5075795;28;20882;-80
2022/05/29 13:23:35;;;;;;;58.40;2.30;;;;;;;;;;5078387;28;20456;-79
2022/05/29 13:26:17;;;;;;;58.17;2.10;;;;;;;;;;5078871;28;20848;-79
2022/05/29 13:29:07;;;;;;;58.63;2.10;;;;;;;;;;5079737;28;20439;-78
2022/05/29 13:31:37;;;;;;;58.17;2.30;;;;;;;;;;5076540;28;20463;-79
2022/05/29 13:34:26;;;;;;;58.20;2.50;;;;;;;;;;5082546;28;20435;-79
2022/05/29 13:36:57;;;;;;;58.10;1.90;;;;;;;;;;5081964;28;20435;-79
2022/05/29 13:39:37;;;;;;;58.20;2.43;;;;;;;;;;5081701;28;20545;-78
2022/05/29 13:42:05;;;;;;;58.07;2.20;;;;;;;;;;5081555;28;20435;-79
2022/05/29 13:44:33;;;;;;;59.03;2.40;;;;;;;;;;5081532;28;20502;-80
2022/05/29 13:47:36;;;;;;;59.80;2.33;;;;;;;;;;5081709;28;20949;-80
2022/05/29 13:50:06;;;;;;;58.97;2.20;;;;;;;;;;5000340;28;20459;-80
2022/05/29 13:52:35;;;;;;;57.90;2.00;;;;;;;;;;4999016;28;20821;-80
2022/05/29 13:55:06;;;;;;;58.90;2.30;;;;;;;;;;4999289;28;20447;-79
2022/05/29 14:06:17;;;;;;;58.23;2.50;;;;;;;;;;5000390;28;20519;-79
2022/05/29 14:08:53;;;;;;;58.17;2.20;;;;;;;;;;4999933;28;20498;-80
2022/05/29 14:11:22;;;;;;;58.90;2.70;;;;;;;;;;4998603;28;20515;-80
2022/05/29 14:13:50;;;;;;;58.80;2.60;;;;;;;;;;5000203;28;20959;-80
2022/05/29 14:16:36;;;;;;;58.50;2.50;;;;;;;;;;4999867;28;20443;-81
2022/05/29 14:19:08;;;;;;;58.60;2.50;;;;;;;;;;4999047;28;20494;-80
2022/05/29 14:21:45;;;;;;;58.57;2.57;;;;;;;;;;5063856;28;20940;-80
2022/05/29 14:24:21;;;;;;;58.60;2.50;;;;;;;;;;5081603;28;20427;-80
2022/05/29 14:27:03;;;;;;;58.50;2.20;;;;;;;;;;5081310;28;20963;-80
2022/05/29 14:29:52;;;;;;;58.33;2.30;;;;;;;;;;5080862;28;20455;-80
2022/05/29 14:32:25;;;;;;;58.20;2.30;;;;;;;;;;5048735;28;20442;-80
2022/05/29 14:35:12;;;;;;;58.87;2.70;;;;;;;;;;5080729;28;20447;-79
2022/05/29 14:37:53;;;;;;;57.80;2.80;;;;;;;;;;5078861;28;20450;-79
2022/05/29 14:40:25;;;;;;;58.70;3.33;;;;;;;;;;5080507;28;20485;-79
2022/05/29 14:42:54;;;;;;;59.43;2.97;;;;;;;;;;5080835;28;20434;-79
2022/05/29 14:45:23;;;;;;;58.57;2.67;;;;;;;;;;5080547;28;20488;-79
2022/05/29 14:47:54;;;;;;;58.53;2.80;;;;;;;;;;5079157;28;20659;-79
2022/05/29 14:50:23;;;;;;;59.70;2.97;;;;;;;;;;5078932;28;20710;-79
2022/05/29 14:52:55;;;;;;;59.10;3.13;;;;;;;;;;5078223;28;20432;-78
2022/05/29 14:55:26;;;;;;;59.13;2.90;;;;;;;;;;5082500;28;20841;-78
2022/05/29 14:57:56;;;;;;;62.67;3.60;;;;;;;;;;5084661;28;20459;-78
2022/05/29 15:00:31;;;;;;;58.90;3.00;;;;;;;;;;5082374;28;20545;-79
2022/05/29 15:03:00;;;;;;;59.30;3.17;;;;;;;;;;5078353;28;20985;-79
2022/05/29 15:05:28;;;;;;;61.40;3.50;;;;;;;;;;5076994;28;20934;-79
2022/05/29 15:10:48;;;;;;;58.73;2.73;;;;;;;;;;5048711;28;20447;-80
2022/05/29 15:13:21;;;;;;;59.20;3.67;;;;;;;;;;5075032;28;20435;-80
2022/05/29 15:15:50;;;;;;;59.00;2.93;;;;;;;;;;5075529;28;20874;-81
2022/05/29 15:18:18;;;;;;;59.80;3.23;;;;;;;;;;5075194;28;20511;-81
2022/05/29 15:26:17;;;;;;;58.23;2.50;;;;;;;;;;5078519;28;20537;-81
2022/05/29 15:28:48;;;;;;;59.17;2.67;;;;;;;;;;5079682;28;20531;-80
2022/05/29 15:31:21;;;;;;;58.17;2.80;;;;;;;;;;5080001;28;20531;-80
2022/05/29 15:33:53;;;;;;;59.23;2.87;;;;;;;;;;5078191;28;20455;-80
2022/05/29 15:36:24;;;;;;;58.60;2.77;;;;;;;;;;5077819;28;20497;-80
2022/05/29 15:38:56;;;;;;;58.40;2.50;;;;;;;;;;5077571;28;20567;-80
2022/05/29 15:41:33;;;;;;;58.30;2.40;;;;;;;;;;5077562;28;20439;-80
2022/05/29 15:44:08;;;;;;;59.17;2.67;;;;;;;;;;5080006;28;20435;-80
2022/05/29 15:46:41;;;;;;;58.60;2.60;;;;;;;;;;5079592;28;20446;-79